Time;durP1;ratioP1;P1;durP2;ratioP2;P2;SDS_P1;SDS_P2;PMS_P1;PMS_P2;Temp;Humidity;BMP_temperature;BMP_pressure;BME280_temperature;BME280_humidity;BME280_pressure;Samples;Min_cycle;Max_cycle;Signal;HPM_P1;HPM_P2
2021/07/27 21:45:33;;;;;;;37.85;32.47;;;26.50;61.50;;;;;;5014366;27;20369;-47
2021/07/27 21:48:20;;;;;;;37.13;31.80;;;27.60;56.80;;;;;;5051050;28;20049;-47
2021/07/27 21:51:06;;;;;;;35.58;30.02;;;27.70;56.60;;;;;;5043365;28;20053;-50
2021/07/27 21:53:52;;;;;;;33.47;26.30;;;27.70;56.60;;;;;;5071319;28;20043;-43
2021/07/27 21:56:38;;;;;;;30.27;26.13;;;27.70;56.40;;;;;;5071921;28;20302;-43
2021/07/27 21:59:24;;;;;;;28.55;25.48;;;27.70;56.50;;;;;;5071594;28;20056;-54
2021/07/27 22:02:09;;;;;;;28.43;25.33;;;27.80;56.60;;;;;;5022193;28;20144;-56
2021/07/27 22:04:55;;;;;;;28.40;24.83;;;27.70;56.50;;;;;;5052162;28;20057;-58
2021/07/27 22:07:40;;;;;;;27.25;24.38;;;27.70;56.40;;;;;;5071383;28;20056;-54
2021/07/27 22:10:26;;;;;;;27.17;23.30;;;27.70;56.50;;;;;;5091597;28;20052;-45
2021/07/27 22:14:31;;;;;;;23.63;20.70;;;28.60;56.50;;;;;;5017786;27;20165;-57
2021/07/27 22:24:40;;;;;;;14.50;9.32;;;28.60;56.50;;;;;;5017381;27;20391;-48
2021/07/27 22:27:27;;;;;;;13.90;9.98;;;28.70;56.50;;;;;;5032204;28;20053;-48
2021/07/27 22:30:14;;;;;;;20.00;12.48;;;28.50;57.00;;;;;;4988209;28;56505;-56
2021/07/27 22:33:00;;;;;;;16.90;12.23;;;28.50;56.50;;;;;;5016522;28;20056;-58
2021/07/27 22:35:46;;;;;;;17.20;12.82;;;28.50;56.30;;;;;;5011366;28;20101;-58
2021/07/27 22:39:36;;;;;;;14.82;12.32;;;27.70;56.30;;;;;;4130610;28;20424;-53
2021/07/27 22:43:11;;;;;;;12.70;10.90;;;26.70;56.10;;;;;;4158476;28;20391;-58
2021/07/27 22:45:13;;;;;;;13.85;11.32;;;26.70;56.10;;;;;;4166053;28;20046;-58
2021/07/27 22:47:15;;;;;;;12.18;10.88;;;26.70;56.10;;;;;;4154667;28;20085;-57
2021/07/27 22:49:17;;;;;;;11.57;9.45;;;26.70;56.10;;;;;;4176853;28;20082;-49
2021/07/27 22:51:19;;;;;;;12.02;10.13;;;26.70;56.00;;;;;;4164239;28;20046;-49
2021/07/27 22:53:21;;;;;;;11.35;10.00;;;26.70;56.00;;;;;;4164018;28;20056;-53
2021/07/27 22:55:23;;;;;;;10.63;9.40;;;26.70;56.00;;;;;;4163090;28;20052;-59
2021/07/27 22:57:25;;;;;;;14.80;9.65;;;26.60;56.00;;;;;;4162784;28;20053;-59
2021/07/27 22:59:28;;;;;;;12.07;9.93;;;26.70;56.00;;;;;;4163115;28;20088;-59
2021/07/27 23:01:30;;;;;;;10.82;8.63;;;26.70;55.90;;;;;;4163139;28;20046;-55
2021/07/27 23:03:35;;;;;;;13.98;8.35;;;26.70;55.90;;;;;;4163102;28;20399;-56
2021/07/27 23:05:39;;;;;;;8.93;7.95;;;26.70;55.90;;;;;;4163618;28;20042;-59
2021/07/27 23:07:41;;;;;;;19.42;8.50;;;26.70;56.10;;;;;;4164558;28;20053;-58
2021/07/27 23:09:43;;;;;;;11.90;7.63;;;26.70;55.70;;;;;;4162709;28;20042;-58
2021/07/27 23:11:45;;;;;;;9.88;7.30;;;26.70;55.30;;;;;;4163019;28;20073;-57
2021/07/27 23:13:47;;;;;;;12.88;7.55;;;26.70;55.20;;;;;;4163109;28;20050;-59
2021/07/27 23:15:49;;;;;;;9.70;7.00;;;26.60;55.20;;;;;;4163451;28;20080;-43
2021/07/27 23:17:51;;;;;;;10.88;6.75;;;26.60;55.40;;;;;;4163547;28;20046;-45
2021/07/27 23:19:53;;;;;;;11.25;6.55;;;26.60;55.00;;;;;;4163506;28;20076;-43
2021/07/27 23:21:55;;;;;;;9.27;6.13;;;26.60;55.10;;;;;;4162757;28;20057;-60
2021/07/27 23:23:57;;;;;;;7.05;6.15;;;26.60;55.00;;;;;;4162786;28;20046;-44
2021/07/27 23:26:06;;;;;;;11.60;7.03;;;26.60;55.00;;;;;;4162655;28;20046;-45
2021/07/27 23:28:08;;;;;;;7.45;5.90;;;26.50;55.00;;;;;;4163242;28;20105;-48
2021/07/27 23:30:10;;;;;;;10.25;6.13;;;26.50;54.80;;;;;;4162861;28;20102;-57
2021/07/27 23:32:12;;;;;;;6.78;5.07;;;26.50;55.00;;;;;;4163158;28;20457;-43
2021/07/27 23:34:14;;;;;;;8.10;5.82;;;26.50;54.80;;;;;;4163196;28;20057;-46
2021/07/27 23:36:18;;;;;;;8.55;5.32;;;26.50;54.90;;;;;;4163341;28;20050;-43
2021/07/27 23:38:20;;;;;;;9.93;5.97;;;26.50;54.70;;;;;;4163072;28;20050;-43
2021/07/27 23:40:22;;;;;;;7.50;5.80;;;26.50;54.80;;;;;;4163252;28;20050;-43
2021/07/27 23:42:24;;;;;;;10.77;6.20;;;26.40;54.80;;;;;;4162984;28;20060;-43
2021/07/27 23:44:26;;;;;;;6.53;5.82;;;26.50;54.90;;;;;;4163149;28;20110;-43
2021/07/27 23:46:28;;;;;;;9.00;5.78;;;26.40;54.70;;;;;;4163280;28;20078;-44
2021/07/27 23:48:33;;;;;;;9.43;5.40;;;26.50;55.10;;;;;;4163249;28;20046;-42
2021/07/27 23:50:35;;;;;;;9.02;6.07;;;26.40;54.70;;;;;;4163163;28;20602;-43
2021/07/27 23:52:38;;;;;;;5.45;4.90;;;26.40;54.80;;;;;;4162593;28;20065;-44
2021/07/27 23:54:40;;;;;;;8.27;5.70;;;26.40;54.90;;;;;;4151862;28;20068;-45
2021/07/27 23:56:42;;;;;;;9.45;5.35;;;26.40;54.90;;;;;;4152318;28;20054;-43
2021/07/27 23:58:44;;;;;;;13.38;6.05;;;26.40;54.60;;;;;;4151806;28;20058;-59
